createdAt,value
2022-10-12T00:02:19.656Z,4.20
2022-10-12T00:04:46.600Z,4.20
2022-10-12T00:07:13.392Z,4.20
2022-10-12T00:09:40.317Z,4.20
2022-10-12T00:12:07.250Z,4.10
2022-10-12T00:14:37.217Z,4.10
2022-10-12T00:17:04.169Z,4.10
2022-10-12T00:19:31.184Z,4.10
2022-10-12T00:21:58.122Z,4.20
2022-10-12T00:24:25.701Z,4.20
2022-10-12T00:26:52.588Z,4.20
2022-10-12T00:29:19.491Z,4.30
2022-10-12T00:31:46.435Z,4.20
2022-10-12T00:34:13.287Z,4.20
2022-10-12T00:36:40.170Z,4.10
2022-10-12T00:39:08.283Z,4.10
2022-10-12T00:41:36.643Z,4.20
2022-10-12T00:44:03.588Z,4.20
2022-10-12T00:46:36.020Z,4.20
2022-10-12T00:49:02.947Z,4.10
2022-10-12T00:51:29.824Z,4.20
2022-10-12T00:53:59.565Z,4.10
2022-10-12T00:56:28.022Z,4.10
2022-10-12T00:58:55.260Z,4.10
2022-10-12T01:01:22.792Z,4.00
2022-10-12T01:03:50.203Z,3.90
2022-10-12T01:06:17.577Z,3.90
2022-10-12T01:08:44.463Z,3.90
2022-10-12T01:11:11.684Z,3.90
2022-10-12T01:13:38.737Z,3.90
2022-10-12T01:16:18.866Z,3.90
2022-10-12T01:18:56.185Z,3.90
2022-10-12T01:21:23.758Z,3.90
2022-10-12T01:24:11.624Z,3.90
2022-10-12T01:26:41.419Z,3.90
2022-10-12T01:29:17.276Z,3.90
2022-10-12T01:31:53.202Z,4.00
2022-10-12T01:34:24.283Z,4.00
2022-10-12T01:37:14.287Z,3.90
2022-10-12T01:39:48.132Z,3.90
2022-10-12T01:42:18.254Z,3.90
2022-10-12T01:44:45.102Z,3.90
2022-10-12T01:47:12.005Z,3.80
2022-10-12T01:49:38.873Z,3.80
2022-10-12T01:52:05.680Z,3.80
2022-10-12T01:54:35.638Z,3.80
2022-10-12T01:57:06.446Z,3.80
2022-10-12T01:59:52.018Z,3.80
2022-10-12T02:02:25.890Z,3.90
2022-10-12T02:04:58.574Z,3.90
2022-10-12T02:07:30.030Z,3.90
2022-10-12T02:09:57.784Z,3.90
2022-10-12T02:12:25.853Z,3.90
2022-10-12T02:14:54.315Z,3.90
2022-10-12T02:17:22.363Z,4.00
2022-10-12T02:19:52.631Z,4.00
2022-10-12T02:22:19.733Z,4.00
2022-10-12T02:24:49.308Z,4.00
2022-10-12T02:27:16.940Z,4.00
2022-10-12T02:29:45.671Z,4.00
2022-10-12T02:32:21.626Z,4.00
2022-10-12T02:35:02.780Z,4.00
2022-10-12T02:37:38.860Z,4.00
2022-10-12T02:40:17.827Z,4.10
2022-10-12T02:43:09.389Z,4.20
2022-10-12T02:45:38.657Z,4.20
2022-10-12T02:48:06.709Z,4.20
2022-10-12T02:50:34.513Z,4.20
2022-10-12T02:53:03.480Z,4.20
2022-10-12T02:55:31.157Z,4.20
2022-10-12T02:57:58.037Z,4.20
2022-10-12T03:00:24.848Z,4.30
2022-10-12T03:02:51.649Z,4.20
2022-10-12T03:05:18.463Z,4.20
2022-10-12T03:07:45.411Z,4.20
2022-10-12T03:10:12.325Z,4.20
2022-10-12T03:12:39.219Z,4.30
2022-10-12T03:15:06.244Z,4.30
2022-10-12T03:17:33.082Z,4.30
2022-10-12T03:19:59.841Z,4.30
2022-10-12T03:22:27.067Z,4.20
2022-10-12T03:24:53.938Z,4.20
2022-10-12T03:27:20.746Z,4.20
2022-10-12T03:29:47.597Z,4.20
2022-10-12T03:32:16.136Z,4.20
2022-10-12T03:34:43.041Z,4.10
2022-10-12T03:37:09.997Z,4.10
2022-10-12T03:39:36.906Z,4.10
2022-10-12T03:42:03.970Z,4.10
2022-10-12T03:44:30.896Z,4.10
2022-10-12T03:46:57.723Z,4.00
2022-10-12T03:49:24.734Z,4.10
2022-10-12T03:51:51.576Z,4.10
2022-10-12T03:54:18.485Z,4.10
2022-10-12T03:56:45.363Z,4.10
2022-10-12T03:59:12.169Z,4.10
2022-10-12T04:01:39.183Z,4.10
2022-10-12T04:04:06.059Z,4.10
2022-10-12T04:06:32.939Z,4.10
2022-10-12T04:08:59.844Z,4.10
2022-10-12T04:11:26.686Z,4.10
2022-10-12T04:13:53.480Z,4.10
2022-10-12T04:16:20.308Z,4.20
2022-10-12T04:18:47.211Z,4.20
2022-10-12T04:21:14.982Z,4.20
2022-10-12T04:23:42.155Z,4.20
2022-10-12T04:26:09.442Z,4.20
2022-10-12T04:28:36.351Z,4.20
2022-10-12T04:31:03.266Z,4.20
2022-10-12T04:33:30.108Z,4.10
2022-10-12T04:35:57.021Z,4.20
2022-10-12T04:38:23.890Z,4.20
2022-10-12T04:40:50.837Z,4.20
2022-10-12T04:43:17.810Z,4.20
2022-10-12T04:45:44.882Z,4.20
2022-10-12T04:48:11.710Z,4.10
2022-10-12T04:50:38.577Z,4.10
2022-10-12T04:53:05.441Z,4.10
2022-10-12T04:55:32.484Z,4.00
2022-10-12T04:58:00.791Z,4.00
2022-10-12T05:00:27.624Z,3.90
2022-10-12T05:02:54.554Z,3.90
2022-10-12T05:05:21.385Z,3.90
2022-10-12T05:07:48.243Z,3.80
2022-10-12T05:10:15.193Z,3.80
2022-10-12T05:12:43.106Z,3.80
2022-10-12T05:15:10.474Z,3.80
2022-10-12T05:17:37.565Z,3.70
2022-10-12T05:20:04.943Z,3.70
2022-10-12T05:22:31.911Z,3.70
2022-10-12T05:24:58.714Z,3.60
2022-10-12T05:27:25.610Z,3.60
2022-10-12T05:29:52.459Z,3.60
2022-10-12T05:32:19.345Z,3.50
2022-10-12T05:34:46.255Z,3.50
2022-10-12T05:37:13.086Z,3.50
2022-10-12T05:39:39.995Z,3.50
2022-10-12T05:42:07.168Z,3.40
2022-10-12T05:44:34.131Z,3.50
2022-10-12T05:47:00.926Z,3.50
2022-10-12T05:49:27.797Z,3.50
2022-10-12T05:51:54.760Z,3.40
2022-10-12T05:54:21.669Z,3.40
2022-10-12T05:56:48.682Z,3.40
2022-10-12T05:59:15.488Z,3.60
2022-10-12T06:01:42.348Z,3.60
2022-10-12T06:04:09.407Z,3.60
2022-10-12T06:06:36.213Z,3.60
2022-10-12T06:09:03.060Z,3.60
2022-10-12T06:11:32.648Z,3.60
2022-10-12T06:14:02.384Z,3.60
2022-10-12T06:16:29.358Z,3.70
2022-10-12T06:18:56.558Z,3.70
2022-10-12T06:21:38.706Z,3.90
2022-10-12T06:24:05.762Z,3.80
2022-10-12T06:26:32.696Z,3.80
2022-10-12T06:29:00.921Z,3.90
2022-10-12T06:31:28.860Z,3.80
2022-10-12T06:33:55.752Z,3.90
2022-10-12T06:36:23.773Z,3.90
2022-10-12T06:38:50.789Z,3.90
2022-10-12T06:41:17.633Z,4.00
2022-10-12T06:43:44.623Z,4.00
2022-10-12T06:46:12.091Z,4.00
2022-10-12T06:48:38.893Z,4.00
2022-10-12T06:51:05.809Z,4.00
2022-10-12T06:53:33.183Z,4.20
2022-10-12T06:56:00.002Z,4.20
2022-10-12T06:58:26.888Z,4.30
2022-10-12T07:00:53.880Z,4.30
2022-10-12T07:03:20.669Z,4.40
2022-10-12T07:05:47.597Z,4.50
2022-10-12T07:08:14.436Z,4.60
2022-10-12T07:10:41.285Z,4.70
2022-10-12T07:13:08.413Z,4.80
2022-10-12T07:15:35.350Z,4.90
2022-10-12T07:18:02.285Z,5.00
2022-10-12T07:20:29.286Z,5.00
2022-10-12T07:22:56.126Z,5.10
2022-10-12T07:25:22.961Z,5.10
2022-10-12T07:27:49.935Z,5.20
2022-10-12T07:30:17.109Z,5.30
2022-10-12T07:32:45.004Z,5.30
2022-10-12T07:35:14.043Z,5.40
2022-10-12T07:37:41.343Z,5.50
2022-10-12T07:40:08.743Z,5.50
2022-10-12T07:42:35.627Z,5.60
2022-10-12T07:45:02.460Z,5.70
2022-10-12T07:47:29.440Z,5.70
2022-10-12T07:49:56.228Z,5.80
2022-10-12T07:52:23.189Z,5.90
2022-10-12T07:54:50.019Z,6.10
2022-10-12T07:57:16.902Z,6.10
2022-10-12T07:59:43.759Z,6.30
2022-10-12T08:02:13.891Z,6.30
2022-10-12T08:04:40.876Z,6.40
2022-10-12T08:07:07.669Z,6.50
2022-10-12T08:09:36.117Z,6.60
2022-10-12T08:12:03.716Z,6.60
2022-10-12T08:14:30.587Z,6.70
2022-10-12T08:16:57.467Z,6.80
2022-10-12T08:19:24.301Z,6.80
2022-10-12T08:21:51.402Z,6.90
2022-10-12T08:24:18.234Z,6.90
2022-10-12T08:26:45.215Z,7.10
2022-10-12T08:29:12.088Z,7.10
2022-10-12T08:31:39.610Z,7.10
2022-10-12T08:34:06.545Z,7.10
2022-10-12T08:36:33.429Z,7.10
2022-10-12T08:39:00.271Z,7.20
2022-10-12T08:41:45.573Z,7.20
2022-10-12T08:44:31.231Z,7.20
2022-10-12T08:47:00.426Z,7.40
2022-10-12T08:49:28.331Z,7.50
2022-10-12T08:51:56.656Z,7.50
2022-10-12T08:54:26.264Z,7.50
2022-10-12T08:56:53.798Z,7.50
2022-10-12T08:59:21.022Z,7.60
2022-10-12T09:01:57.454Z,7.70
2022-10-12T09:04:33.399Z,7.80
2022-10-12T09:07:06.501Z,7.90
2022-10-12T09:09:43.885Z,8.10
2022-10-12T09:12:10.943Z,8.10
2022-10-12T09:14:39.964Z,8.20
2022-10-12T09:17:16.017Z,8.30
2022-10-12T09:19:42.944Z,8.40
2022-10-12T09:22:19.614Z,8.50
2022-10-12T09:24:48.187Z,8.40
2022-10-12T09:27:16.347Z,8.70
2022-10-12T09:29:47.428Z,8.90
2022-10-12T09:32:32.699Z,9.00
2022-10-12T09:34:59.803Z,9.10
2022-10-12T09:37:28.876Z,9.30
2022-10-12T09:39:55.982Z,9.40
2022-10-12T09:42:22.968Z,9.40
2022-10-12T09:44:52.648Z,9.40
2022-10-12T09:47:27.074Z,9.60
2022-10-12T09:49:58.496Z,9.70
2022-10-12T09:52:27.845Z,9.80
2022-10-12T09:54:57.410Z,9.80
2022-10-12T09:57:26.698Z,9.90
2022-10-12T09:59:54.662Z,9.90
2022-10-12T10:02:22.774Z,9.90
2022-10-12T10:04:50.365Z,10.00
2022-10-12T10:07:23.368Z,9.90
2022-10-12T10:10:28.444Z,10.00
2022-10-12T10:12:58.989Z,10.00
2022-10-12T10:15:28.040Z,10.20
2022-10-12T10:17:56.219Z,10.30
2022-10-12T10:20:31.078Z,10.30
2022-10-12T10:22:58.693Z,10.30
2022-10-12T10:25:25.634Z,10.30
2022-10-12T10:28:30.663Z,10.40
2022-10-12T10:31:02.877Z,10.50
2022-10-12T10:33:31.431Z,10.50
2022-10-12T10:36:00.796Z,10.60
2022-10-12T10:38:29.285Z,10.50
2022-10-12T10:40:57.516Z,10.50
2022-10-12T10:43:28.770Z,10.50
2022-10-12T10:45:59.449Z,10.60
2022-10-12T10:48:51.138Z,10.70
2022-10-12T10:51:18.049Z,10.90
2022-10-12T10:53:46.154Z,10.80
2022-10-12T10:56:24.157Z,10.90
2022-10-12T10:58:56.322Z,10.90
2022-10-12T11:01:32.682Z,11.00
2022-10-12T11:04:01.791Z,11.10
2022-10-12T11:06:41.435Z,11.10
2022-10-12T11:09:13.557Z,11.20
2022-10-12T11:11:41.046Z,11.20
2022-10-12T11:14:22.026Z,11.10
2022-10-12T11:16:52.806Z,11.20
2022-10-12T11:19:30.015Z,11.30
2022-10-12T11:21:58.235Z,11.30
2022-10-12T11:24:34.335Z,11.30
2022-10-12T11:27:01.327Z,11.40
2022-10-12T11:29:28.317Z,11.50
2022-10-12T11:31:55.160Z,11.50
2022-10-12T11:34:23.924Z,11.50
2022-10-12T11:37:18.301Z,11.50
2022-10-12T11:39:42.966Z,11.50
2022-10-12T11:42:22.152Z,11.50
2022-10-12T11:44:50.343Z,11.60
2022-10-12T11:47:23.062Z,11.70
2022-10-12T11:49:58.076Z,11.80
2022-10-12T11:52:29.109Z,11.90
2022-10-12T11:55:00.561Z,11.80
2022-10-12T11:57:29.067Z,11.80
2022-10-12T12:00:00.644Z,11.80
2022-10-12T12:02:34.136Z,11.80
2022-10-12T12:05:02.507Z,11.90
2022-10-12T12:07:43.580Z,12.00
2022-10-12T12:10:25.966Z,11.90
2022-10-12T12:13:15.030Z,12.00
2022-10-12T12:15:43.316Z,11.90
2022-10-12T12:18:10.667Z,12.10
2022-10-12T12:20:44.077Z,12.20
2022-10-12T12:23:26.241Z,12.20
2022-10-12T12:26:17.267Z,12.20
2022-10-12T12:28:52.063Z,12.20
2022-10-12T12:31:22.194Z,12.30
2022-10-12T12:33:50.345Z,12.30
2022-10-12T12:36:34.483Z,12.30
2022-10-12T12:39:02.899Z,12.40
2022-10-12T12:41:54.105Z,12.60
2022-10-12T12:44:40.569Z,12.50
2022-10-12T12:47:26.441Z,12.50
2022-10-12T12:49:56.386Z,12.50
2022-10-12T12:52:34.323Z,12.60
2022-10-12T12:55:16.158Z,12.60
2022-10-12T12:58:00.880Z,12.70
2022-10-12T13:00:36.766Z,12.60
2022-10-12T13:03:19.126Z,12.60
2022-10-12T13:06:05.805Z,12.60
2022-10-12T13:08:32.555Z,12.60
2022-10-12T13:11:05.579Z,12.50
2022-10-12T13:13:46.207Z,12.40
2022-10-12T13:16:36.497Z,12.40
2022-10-12T13:19:18.641Z,12.40
2022-10-12T13:21:49.668Z,12.40
2022-10-12T13:24:22.323Z,12.50
2022-10-12T13:26:51.551Z,12.60
2022-10-12T13:29:47.754Z,12.50
2022-10-12T13:32:34.969Z,12.50
2022-10-12T13:35:05.198Z,12.50
2022-10-12T13:37:34.027Z,12.50
2022-10-12T13:40:01.211Z,12.50
2022-10-12T13:42:31.170Z,12.50
2022-10-12T13:44:58.435Z,12.50
2022-10-12T13:47:30.301Z,12.50
2022-10-12T13:49:57.954Z,12.60
2022-10-12T13:52:32.142Z,12.50
2022-10-12T13:55:00.237Z,12.50
2022-10-12T13:57:31.987Z,12.50
2022-10-12T14:00:08.739Z,12.50
2022-10-12T14:02:35.674Z,12.40
2022-10-12T14:05:05.233Z,12.40
2022-10-12T14:07:34.606Z,12.40
2022-10-12T14:10:04.637Z,12.30
2022-10-12T14:12:32.805Z,12.30
2022-10-12T14:15:00.470Z,12.30
2022-10-12T14:17:27.436Z,12.20
2022-10-12T14:19:55.369Z,12.20
2022-10-12T14:22:28.669Z,12.10
2022-10-12T14:25:14.336Z,12.20
2022-10-12T14:27:41.432Z,12.20
2022-10-12T14:30:19.230Z,12.10
2022-10-12T14:32:46.639Z,12.10
2022-10-12T14:35:13.463Z,12.00
2022-10-12T14:37:40.412Z,12.00
2022-10-12T14:40:25.915Z,11.90
2022-10-12T14:43:00.445Z,11.90
2022-10-12T14:45:27.328Z,11.80
2022-10-12T14:47:54.180Z,11.80
2022-10-12T14:50:21.619Z,11.70
2022-10-12T14:52:50.323Z,11.70
2022-10-12T14:55:17.132Z,11.50
2022-10-12T14:57:43.975Z,11.60
2022-10-12T15:00:14.801Z,11.60
2022-10-12T15:02:42.115Z,11.50
2022-10-12T15:05:10.262Z,11.50
2022-10-12T15:07:37.314Z,11.40
2022-10-12T15:10:04.583Z,11.40
2022-10-12T15:12:31.993Z,11.40
2022-10-12T15:15:00.747Z,11.30
2022-10-12T15:17:27.684Z,11.40
2022-10-12T15:19:55.221Z,11.30
2022-10-12T15:22:26.285Z,11.30
2022-10-12T15:24:54.727Z,11.30
2022-10-12T15:27:22.094Z,11.20
2022-10-12T15:29:49.058Z,11.30
2022-10-12T15:32:17.583Z,11.20
2022-10-12T15:34:44.595Z,11.20
2022-10-12T15:37:11.839Z,11.20
2022-10-12T15:39:38.786Z,11.10
2022-10-12T15:42:05.785Z,11.10
2022-10-12T15:44:39.098Z,11.10
2022-10-12T15:47:05.948Z,11.00
2022-10-12T15:49:34.805Z,11.00
2022-10-12T15:52:01.672Z,11.00
2022-10-12T15:54:28.542Z,10.90
2022-10-12T15:56:55.576Z,10.80
2022-10-12T15:59:22.603Z,10.80
2022-10-12T16:01:49.444Z,10.80
2022-10-12T16:04:16.577Z,10.70
2022-10-12T16:06:43.692Z,10.60
2022-10-12T16:09:10.672Z,10.50
2022-10-12T16:11:37.505Z,10.40
2022-10-12T16:14:04.406Z,10.40
2022-10-12T16:16:32.357Z,10.40
2022-10-12T16:18:59.183Z,10.30
2022-10-12T16:21:26.116Z,10.30
2022-10-12T16:23:53.164Z,10.20
2022-10-12T16:26:20.031Z,10.10
2022-10-12T16:28:46.997Z,10.10
2022-10-12T16:31:16.141Z,10.00
2022-10-12T16:33:43.520Z,10.00
2022-10-12T16:36:11.731Z,9.90
2022-10-12T16:38:38.578Z,9.90
2022-10-12T16:41:12.425Z,9.80
2022-10-12T16:43:39.465Z,9.80
2022-10-12T16:46:06.919Z,9.70
2022-10-12T16:48:33.921Z,9.60
2022-10-12T16:51:01.165Z,9.60
2022-10-12T16:53:28.244Z,9.50
2022-10-12T16:55:55.186Z,9.50
2022-10-12T16:58:22.183Z,9.50
2022-10-12T17:00:49.106Z,9.50
2022-10-12T17:03:16.172Z,9.40
2022-10-12T17:05:43.223Z,9.40
2022-10-12T17:08:15.114Z,9.30
2022-10-12T17:10:43.905Z,9.20
2022-10-12T17:13:10.879Z,9.20
2022-10-12T17:15:41.698Z,9.20
2022-10-12T17:18:08.863Z,9.20
2022-10-12T17:20:36.306Z,9.20
2022-10-12T17:23:03.524Z,9.10
2022-10-12T17:25:30.345Z,9.10
2022-10-12T17:27:57.410Z,9.00
2022-10-12T17:30:24.337Z,9.00
2022-10-12T17:32:51.184Z,8.90
2022-10-12T17:35:18.125Z,8.80
2022-10-12T17:37:45.009Z,8.70
2022-10-12T17:40:11.998Z,8.70
2022-10-12T17:42:38.815Z,8.70
2022-10-12T17:45:05.939Z,8.60
2022-10-12T17:47:32.757Z,8.60
2022-10-12T17:49:59.695Z,8.50
2022-10-12T17:52:26.513Z,8.50
2022-10-12T17:54:53.426Z,8.50
2022-10-12T17:57:20.625Z,8.40
2022-10-12T17:59:47.907Z,8.40
2022-10-12T18:02:14.764Z,8.40
2022-10-12T18:04:41.595Z,8.30
2022-10-12T18:07:08.403Z,8.30
2022-10-12T18:09:35.312Z,8.30
2022-10-12T18:12:02.156Z,8.20
2022-10-12T18:14:28.954Z,8.20
2022-10-12T18:16:57.640Z,8.20
2022-10-12T18:19:25.216Z,8.20
2022-10-12T18:21:52.057Z,8.10
2022-10-12T18:24:20.781Z,8.10
2022-10-12T18:26:47.981Z,8.10
2022-10-12T18:29:14.951Z,8.10
2022-10-12T18:31:41.966Z,8.10
2022-10-12T18:34:09.022Z,8.10
2022-10-12T18:36:35.917Z,8.10
2022-10-12T18:39:03.720Z,8.10
2022-10-12T18:41:30.622Z,8.10
2022-10-12T18:43:58.161Z,8.10
2022-10-12T18:46:26.286Z,8.10
2022-10-12T18:48:53.271Z,8.10
2022-10-12T18:51:22.015Z,8.20
2022-10-12T18:53:49.214Z,8.20
2022-10-12T18:56:16.076Z,8.20
2022-10-12T18:58:43.042Z,8.20
2022-10-12T19:01:11.853Z,8.20
2022-10-12T19:03:38.932Z,8.30
2022-10-12T19:06:07.431Z,8.30
2022-10-12T19:08:34.639Z,8.30
2022-10-12T19:11:03.255Z,8.40
2022-10-12T19:13:30.052Z,8.30
2022-10-12T19:15:57.099Z,8.40
2022-10-12T19:18:23.960Z,8.40
2022-10-12T19:20:50.784Z,8.40
2022-10-12T19:23:18.345Z,8.50
2022-10-12T19:25:45.366Z,8.50
2022-10-12T19:28:12.202Z,8.50
2022-10-12T19:30:39.242Z,8.50
2022-10-12T19:33:06.059Z,8.50
2022-10-12T19:35:35.988Z,8.50
2022-10-12T19:38:02.882Z,8.50
2022-10-12T19:40:29.785Z,8.50
2022-10-12T19:42:56.621Z,8.50
2022-10-12T19:45:23.539Z,8.50
2022-10-12T19:47:50.347Z,8.50
2022-10-12T19:50:18.376Z,8.40
2022-10-12T19:52:46.151Z,8.40
2022-10-12T19:55:12.958Z,8.40
2022-10-12T19:57:39.895Z,8.30
2022-10-12T20:00:07.422Z,8.30
2022-10-12T20:02:34.957Z,8.30
2022-10-12T20:05:01.864Z,8.20
2022-10-12T20:07:29.570Z,8.20
2022-10-12T20:09:56.481Z,8.20
2022-10-12T20:12:25.036Z,8.20
2022-10-12T20:14:52.047Z,8.20
2022-10-12T20:17:18.946Z,8.10
2022-10-12T20:19:45.783Z,8.20
2022-10-12T20:22:12.633Z,8.20
2022-10-12T20:24:39.529Z,8.20
2022-10-12T20:27:06.511Z,8.20
2022-10-12T20:29:33.451Z,8.20
2022-10-12T20:32:00.302Z,8.20
2022-10-12T20:34:27.221Z,8.20
2022-10-12T20:36:54.020Z,8.20
2022-10-12T20:39:21.003Z,8.10
2022-10-12T20:41:47.875Z,8.20
2022-10-12T20:44:14.695Z,8.10
2022-10-12T20:46:44.511Z,8.10
2022-10-12T20:49:11.408Z,8.10
2022-10-12T20:51:42.927Z,8.10
2022-10-12T20:54:14.829Z,8.10
2022-10-12T20:56:43.126Z,8.00
2022-10-12T20:59:10.593Z,8.10
2022-10-12T21:01:37.521Z,8.00
2022-10-12T21:04:04.439Z,8.10
2022-10-12T21:06:31.357Z,8.10
2022-10-12T21:08:58.357Z,8.10
2022-10-12T21:11:25.358Z,8.20
2022-10-12T21:13:52.546Z,8.20
2022-10-12T21:16:19.523Z,8.20
2022-10-12T21:18:46.583Z,8.20
2022-10-12T21:21:17.647Z,8.20
2022-10-12T21:23:57.747Z,8.10
2022-10-12T21:26:25.861Z,8.10
2022-10-12T21:28:53.233Z,8.10
2022-10-12T21:31:20.176Z,8.00
2022-10-12T21:33:47.471Z,8.00
2022-10-12T21:36:15.811Z,8.00
2022-10-12T21:38:42.828Z,8.00
2022-10-12T21:41:10.827Z,8.00
2022-10-12T21:43:38.447Z,8.00
2022-10-12T21:46:06.454Z,8.00
2022-10-12T21:48:34.065Z,8.00
2022-10-12T21:51:01.497Z,7.90
2022-10-12T21:53:28.711Z,7.90
2022-10-12T21:55:55.509Z,7.90
2022-10-12T21:58:22.421Z,7.90
2022-10-12T22:00:49.336Z,7.90
2022-10-12T22:03:16.370Z,7.80
2022-10-12T22:05:43.934Z,7.80
2022-10-12T22:08:11.077Z,7.80
2022-10-12T22:10:39.351Z,7.80
2022-10-12T22:13:07.018Z,7.80
2022-10-12T22:15:34.639Z,7.80
2022-10-12T22:18:02.537Z,7.80
2022-10-12T22:20:29.400Z,7.70
2022-10-12T22:22:56.356Z,7.70
2022-10-12T22:25:23.207Z,7.70
2022-10-12T22:27:50.049Z,7.70
2022-10-12T22:30:16.878Z,7.60
2022-10-12T22:32:43.742Z,7.60
2022-10-12T22:35:10.694Z,7.60
2022-10-12T22:37:37.612Z,7.60
2022-10-12T22:40:04.758Z,7.60
2022-10-12T22:42:31.765Z,7.60
2022-10-12T22:44:58.598Z,7.60
2022-10-12T22:47:25.896Z,7.60
2022-10-12T22:49:52.725Z,7.60
2022-10-12T22:52:20.045Z,7.50
2022-10-12T22:54:47.198Z,7.50
2022-10-12T22:57:14.006Z,7.50
2022-10-12T22:59:41.032Z,7.50
2022-10-12T23:02:07.801Z,7.50
2022-10-12T23:04:34.791Z,7.50
2022-10-12T23:07:01.592Z,7.40
2022-10-12T23:09:28.434Z,7.40
2022-10-12T23:11:55.262Z,7.40
2022-10-12T23:14:22.043Z,7.40
2022-10-12T23:16:49.147Z,7.50
2022-10-12T23:19:15.997Z,7.50
2022-10-12T23:21:43.045Z,7.50
2022-10-12T23:24:10.118Z,7.50
2022-10-12T23:26:36.991Z,7.50
2022-10-12T23:29:03.967Z,7.60
2022-10-12T23:31:31.246Z,7.60
2022-10-12T23:33:59.796Z,7.50
2022-10-12T23:36:26.695Z,7.50
2022-10-12T23:38:53.666Z,7.50
2022-10-12T23:41:20.530Z,7.50
2022-10-12T23:43:47.502Z,7.40
2022-10-12T23:46:14.291Z,7.50
2022-10-12T23:48:41.109Z,7.50
2022-10-12T23:51:08.578Z,7.50
2022-10-12T23:53:35.604Z,7.50
2022-10-12T23:56:02.559Z,7.40
2022-10-12T23:58:29.432Z,7.40
